Washington, DC (20554)

10:20 PM EST on February 13, 2016 (GMT -0500)
Adams Morgan | | Change Station
CLOSE
Current Station
Personal Weather Station
Location: Washington, DC
Elevation: 171 ft
Nearby Weather Stations
Active Advisory: Wind Chill Advisory Active Notice: Public Information Statement

Elev 171 ft 38.92 °N, 77.04 °W | Updated 15 seconds ago

Clear
Clear
16.2 °F
Feels Like 16 °F
N
2.0
Wind Variable Wind from West
Gusts 2.5 mph

Today
High -- | Low -- °F
--% Chance of Precip.
Yesterday
High -- | Low -- °F
Precip. -- in
Pressure 30.46 in
Visibility 10.0 miles
Clouds Few 6000 ft
Windchill 16 °F
Dew Point -11 °F
Humidity 28%
Rainfall in
Snow Depth Not available.
7:02 AM 5:42 PM
Waxing Crescent, 37% visible
METAR KDCA 140252Z COR 31014G18KT 10SM FEW060 M09/M22 A3046 RMK AO2 PK WND 32029/0200 SLP313 T10891217 51014
Pressure 30.46 in
Visibility 10.0 miles
Clouds Few 6000 ft
Windchill 16 °F
Dew Point -11 °F
Humidity 28%
Rainfall in
Snow Depth Not available.
7:02 AM 5:42 PM
Waxing Crescent, 37% visible
METAR KDCA 140252Z COR 31014G18KT 10SM FEW060 M09/M22 A3046 RMK AO2 PK WND 32029/0200 SLP313 T10891217 51014

10-Day Weather Forecast

Almanac

Astronomy

Feb. 13, 2016 Rise Set
Actual Time
Civil Twilight
Nautical Twilight
Astronomical Twilight
Moon
Length of Visible Light
Length of Day
Tomorrow will be .
, % of the Moon is Illuminated

Today's Extremes

State Highs State Lows

Community

WunderPhotos

Upload Photos

1,892,733 photos uploaded!

WunderBlog® & News

Nearby

Air Quality

  Air Quality AQ Index Pollutant
Not available.

Snow Depth

Station Depth Elevation

Earthquake Activity

City Distance Mag. Time & Date
Minimum magnitude displayed is 2.5.

Coastal Water Temperatures

Place Temperature

Stations

Nearby Weather Stations

Station Location Temp. Windchill Dew Point Humidity Wind Precip. Elev Updated Type
                   

Watches & Warnings

Wind Chill Advisory
Issued: 8:45 PM EST Feb. 13, 2016 – National Weather Service

... Wind Chill Advisory remains in effect until 9 am EST Sunday...

* wind chills... 0 to 5 degrees below zero.

* Winds... northwest 10 to 15 mph with gusts up to 30 mph.

* Temperatures... 5 to 15 degrees above zero.

* Timing... late tonight through Sunday morning.

* Impacts... frost bite and hypothermia are possible if
precautions are not taken.

Precautionary/preparedness actions...

A Wind Chill Advisory means that very cold air and strong winds
will combine to generate low wind chills. This will result in
frost bite and lead to hypothermia if precautions are not taken.
If you must venture outdoors... make sure you wear a hat and
gloves.